sensor_id;sensor_type;location;lat;lon;timestamp;temperature;humidity
25170;DHT22;13129;48.012;10.352;2023-07-20T03:32:27;17.40;99.90
25170;DHT22;13129;48.012;10.352;2023-07-20T03:34:52;17.30;99.90
25170;DHT22;13129;48.012;10.352;2023-07-20T03:37:18;17.30;99.90
25170;DHT22;13129;48.012;10.352;2023-07-20T03:39:43;17.30;99.90
25170;DHT22;13129;48.012;10.352;2023-07-20T03:42:09;17.40;99.90
25170;DHT22;13129;48.012;10.352;2023-07-20T03:44:34;17.40;99.90
25170;DHT22;13129;48.012;10.352;2023-07-20T03:47:00;17.40;99.90
25170;DHT22;13129;48.012;10.352;2023-07-20T03:49:26;17.40;99.90
25170;DHT22;13129;48.012;10.352;2023-07-20T03:51:51;17.30;99.90
25170;DHT22;13129;48.012;10.352;2023-07-20T03:54:17;17.20;99.90
25170;DHT22;13129;48.012;10.352;2023-07-20T03:56:44;17.10;99.90
25170;DHT22;13129;48.012;10.352;2023-07-20T03:59:09;17.10;99.90
25170;DHT22;13129;48.012;10.352;2023-07-20T04:01:35;17.00;99.90
25170;DHT22;13129;48.012;10.352;2023-07-20T04:04:06;17.00;99.90
25170;DHT22;13129;48.012;10.352;2023-07-20T04:06:32;16.90;99.90
25170;DHT22;13129;48.012;10.352;2023-07-20T04:08:58;16.90;99.90
25170;DHT22;13129;48.012;10.352;2023-07-20T04:11:23;16.90;99.90
25170;DHT22;13129;48.012;10.352;2023-07-20T04:13:49;16.80;99.90
25170;DHT22;13129;48.012;10.352;2023-07-20T04:16:15;16.80;99.90
25170;DHT22;13129;48.012;10.352;2023-07-20T04:18:40;16.80;99.90
25170;DHT22;13129;48.012;10.352;2023-07-20T04:21:07;16.80;99.90
25170;DHT22;13129;48.012;10.352;2023-07-20T04:23:33;16.80;99.90
25170;DHT22;13129;48.012;10.352;2023-07-20T04:25:59;16.90;99.90
25170;DHT22;13129;48.012;10.352;2023-07-20T04:28:24;16.90;99.90
25170;DHT22;13129;48.012;10.352;2023-07-20T04:30:50;17.10;99.90
25170;DHT22;13129;48.012;10.352;2023-07-20T04:33:16;17.10;99.90
25170;DHT22;13129;48.012;10.352;2023-07-20T04:38:16;17.20;99.90
25170;DHT22;13129;48.012;10.352;2023-07-20T04:40:47;17.40;99.90
25170;DHT22;13129;48.012;10.352;2023-07-20T04:43:16;17.30;99.90
25170;DHT22;13129;48.012;10.352;2023-07-20T04:45:56;17.30;99.90
25170;DHT22;13129;48.012;10.352;2023-07-20T04:48:22;17.40;99.90
25170;DHT22;13129;48.012;10.352;2023-07-20T04:50:47;17.30;99.90
25170;DHT22;13129;48.012;10.352;2023-07-20T04:53:13;17.60;99.90
25170;DHT22;13129;48.012;10.352;2023-07-20T04:55:39;17.60;99.90
25170;DHT22;13129;48.012;10.352;2023-07-20T04:58:06;17.70;99.90
25170;DHT22;13129;48.012;10.352;2023-07-20T05:00:37;17.80;99.90
25170;DHT22;13129;48.012;10.352;2023-07-20T05:03:03;17.90;99.90
25170;DHT22;13129;48.012;10.352;2023-07-20T05:05:30;18.20;99.90
25170;DHT22;13129;48.012;10.352;2023-07-20T05:07:56;18.30;99.90
25170;DHT22;13129;48.012;10.352;2023-07-20T05:10:21;18.30;99.90
25170;DHT22;13129;48.012;10.352;2023-07-20T05:12:47;18.40;99.90
25170;DHT22;13129;48.012;10.352;2023-07-20T05:15:12;18.40;99.90
25170;DHT22;13129;48.012;10.352;2023-07-20T05:17:38;18.60;99.90
25170;DHT22;13129;48.012;10.352;2023-07-20T05:20:05;18.70;99.90
25170;DHT22;13129;48.012;10.352;2023-07-20T05:22:31;18.70;99.90
25170;DHT22;13129;48.012;10.352;2023-07-20T05:24:56;18.80;99.90
25170;DHT22;13129;48.012;10.352;2023-07-20T05:27:22;19.00;99.90
25170;DHT22;13129;48.012;10.352;2023-07-20T05:29:48;19.10;99.90
25170;DHT22;13129;48.012;10.352;2023-07-20T05:32:13;19.20;99.90
25170;DHT22;13129;48.012;10.352;2023-07-20T05:34:39;19.30;99.90
25170;DHT22;13129;48.012;10.352;2023-07-20T05:37:05;19.20;99.90
25170;DHT22;13129;48.012;10.352;2023-07-20T05:39:33;19.10;99.90
25170;DHT22;13129;48.012;10.352;2023-07-20T05:41:58;19.00;99.90
25170;DHT22;13129;48.012;10.352;2023-07-20T05:44:24;20.00;99.90
25170;DHT22;13129;48.012;10.352;2023-07-20T05:46:49;20.80;99.90
25170;DHT22;13129;48.012;10.352;2023-07-20T05:49:15;21.00;99.90
25170;DHT22;13129;48.012;10.352;2023-07-20T05:51:40;21.30;99.90
25170;DHT22;13129;48.012;10.352;2023-07-20T05:54:06;21.30;98.90
25170;DHT22;13129;48.012;10.352;2023-07-20T05:56:32;21.10;98.80
25170;DHT22;13129;48.012;10.352;2023-07-20T05:58:57;21.00;98.50
25170;DHT22;13129;48.012;10.352;2023-07-20T06:01:23;21.10;99.10
25170;DHT22;13129;48.012;10.352;2023-07-20T06:03:52;21.40;97.80
25170;DHT22;13129;48.012;10.352;2023-07-20T06:06:17;21.20;96.50
25170;DHT22;13129;48.012;10.352;2023-07-20T06:08:43;20.90;96.00
25170;DHT22;13129;48.012;10.352;2023-07-20T06:11:09;20.60;96.30
25170;DHT22;13129;48.012;10.352;2023-07-20T06:13:34;20.30;96.50
25170;DHT22;13129;48.012;10.352;2023-07-20T06:16:00;20.30;96.60
25170;DHT22;13129;48.012;10.352;2023-07-20T06:18:26;20.00;96.30
25170;DHT22;13129;48.012;10.352;2023-07-20T06:20:52;19.90;96.40
25170;DHT22;13129;48.012;10.352;2023-07-20T06:23:20;20.50;96.80
25170;DHT22;13129;48.012;10.352;2023-07-20T06:25:46;21.40;95.20
25170;DHT22;13129;48.012;10.352;2023-07-20T06:28:12;21.60;94.00
25170;DHT22;13129;48.012;10.352;2023-07-20T06:30:38;21.50;93.80
25170;DHT22;13129;48.012;10.352;2023-07-20T06:33:04;21.30;93.60
25170;DHT22;13129;48.012;10.352;2023-07-20T06:35:29;21.20;93.70
25170;DHT22;13129;48.012;10.352;2023-07-20T06:37:55;21.10;93.80
25170;DHT22;13129;48.012;10.352;2023-07-20T06:40:21;21.00;94.00
25170;DHT22;13129;48.012;10.352;2023-07-20T06:42:46;21.10;94.40
25170;DHT22;13129;48.012;10.352;2023-07-20T06:45:12;21.40;94.00
25170;DHT22;13129;48.012;10.352;2023-07-20T06:47:38;21.60;93.40
25170;DHT22;13129;48.012;10.352;2023-07-20T06:50:06;21.50;92.60
25170;DHT22;13129;48.012;10.352;2023-07-20T06:52:32;21.50;92.20
25170;DHT22;13129;48.012;10.352;2023-07-20T06:54:58;21.40;92.20
25170;DHT22;13129;48.012;10.352;2023-07-20T06:57:24;21.20;92.00
25170;DHT22;13129;48.012;10.352;2023-07-20T06:59:50;21.40;92.10
25170;DHT22;13129;48.012;10.352;2023-07-20T07:02:15;21.50;92.10
25170;DHT22;13129;48.012;10.352;2023-07-20T07:04:41;22.20;91.60
25170;DHT22;13129;48.012;10.352;2023-07-20T07:07:07;22.80;90.90
25170;DHT22;13129;48.012;10.352;2023-07-20T07:09:33;23.30;90.10
25170;DHT22;13129;48.012;10.352;2023-07-20T07:11:58;24.30;89.30
25170;DHT22;13129;48.012;10.352;2023-07-20T07:14:24;25.30;85.80
25170;DHT22;13129;48.012;10.352;2023-07-20T07:16:50;25.50;83.50
25170;DHT22;13129;48.012;10.352;2023-07-20T07:19:15;25.40;81.40
25170;DHT22;13129;48.012;10.352;2023-07-20T07:21:41;25.00;81.20
25170;DHT22;13129;48.012;10.352;2023-07-20T07:24:06;24.80;82.50
25170;DHT22;13129;48.012;10.352;2023-07-20T07:26:33;25.00;83.50
25170;DHT22;13129;48.012;10.352;2023-07-20T07:28:58;25.50;80.40
25170;DHT22;13129;48.012;10.352;2023-07-20T07:31:29;26.40;78.60
25170;DHT22;13129;48.012;10.352;2023-07-20T07:33:55;26.50;77.30
25170;DHT22;13129;48.012;10.352;2023-07-20T07:36:21;26.40;76.60
25170;DHT22;13129;48.012;10.352;2023-07-20T07:38:46;26.70;74.70
25170;DHT22;13129;48.012;10.352;2023-07-20T07:41:12;26.90;73.90
25170;DHT22;13129;48.012;10.352;2023-07-20T07:43:38;27.20;72.30
25170;DHT22;13129;48.012;10.352;2023-07-20T07:46:04;27.60;71.80
25170;DHT22;13129;48.012;10.352;2023-07-20T07:48:29;27.70;70.50
25170;DHT22;13129;48.012;10.352;2023-07-20T07:50:55;28.10;69.80
25170;DHT22;13129;48.012;10.352;2023-07-20T07:53:21;28.60;68.20
25170;DHT22;13129;48.012;10.352;2023-07-20T07:55:50;28.60;65.60
25170;DHT22;13129;48.012;10.352;2023-07-20T07:58:16;28.80;64.70
25170;DHT22;13129;48.012;10.352;2023-07-20T08:00:42;29.20;65.60
25170;DHT22;13129;48.012;10.352;2023-07-20T08:03:10;30.30;62.90
25170;DHT22;13129;48.012;10.352;2023-07-20T08:05:36;31.50;58.60
25170;DHT22;13129;48.012;10.352;2023-07-20T08:08:03;32.70;57.50
25170;DHT22;13129;48.012;10.352;2023-07-20T08:10:31;33.50;56.10
25170;DHT22;13129;48.012;10.352;2023-07-20T08:12:57;33.50;54.70
25170;DHT22;13129;48.012;10.352;2023-07-20T08:15:23;32.60;53.90
25170;DHT22;13129;48.012;10.352;2023-07-20T08:17:48;32.10;54.40
25170;DHT22;13129;48.012;10.352;2023-07-20T08:20:17;31.90;54.50
25170;DHT22;13129;48.012;10.352;2023-07-20T08:22:43;31.80;53.60
25170;DHT22;13129;48.012;10.352;2023-07-20T08:25:09;31.90;54.10
25170;DHT22;13129;48.012;10.352;2023-07-20T08:27:36;32.20;53.40
25170;DHT22;13129;48.012;10.352;2023-07-20T08:30:02;33.10;52.50
25170;DHT22;13129;48.012;10.352;2023-07-20T08:32:29;33.70;51.00
25170;DHT22;13129;48.012;10.352;2023-07-20T08:34:55;34.10;50.00
25170;DHT22;13129;48.012;10.352;2023-07-20T08:37:21;33.80;49.90
25170;DHT22;13129;48.012;10.352;2023-07-20T08:39:46;33.60;50.00
25170;DHT22;13129;48.012;10.352;2023-07-20T08:42:12;34.10;50.40
25170;DHT22;13129;48.012;10.352;2023-07-20T08:44:41;34.40;49.30
25170;DHT22;13129;48.012;10.352;2023-07-20T08:47:09;34.40;48.70
25170;DHT22;13129;48.012;10.352;2023-07-20T08:49:36;34.70;49.90
25170;DHT22;13129;48.012;10.352;2023-07-20T08:52:04;33.00;49.20
25170;DHT22;13129;48.012;10.352;2023-07-20T08:54:31;31.50;51.30
25170;DHT22;13129;48.012;10.352;2023-07-20T08:57:04;31.00;53.60
25170;DHT22;13129;48.012;10.352;2023-07-20T08:59:31;31.90;52.70
25170;DHT22;13129;48.012;10.352;2023-07-20T09:01:58;33.20;52.40
25170;DHT22;13129;48.012;10.352;2023-07-20T09:04:24;34.40;50.30
25170;DHT22;13129;48.012;10.352;2023-07-20T09:06:53;34.00;48.90
25170;DHT22;13129;48.012;10.352;2023-07-20T09:09:19;33.20;49.90
25170;DHT22;13129;48.012;10.352;2023-07-20T09:11:49;32.30;50.90
25170;DHT22;13129;48.012;10.352;2023-07-20T09:14:14;31.30;52.30
25170;DHT22;13129;48.012;10.352;2023-07-20T09:16:52;31.10;52.80
25170;DHT22;13129;48.012;10.352;2023-07-20T09:19:18;32.00;52.40
25170;DHT22;13129;48.012;10.352;2023-07-20T09:21:51;33.50;51.10
25170;DHT22;13129;48.012;10.352;2023-07-20T09:24:20;34.70;49.10
25170;DHT22;13129;48.012;10.352;2023-07-20T09:26:47;35.40;47.40
25170;DHT22;13129;48.012;10.352;2023-07-20T09:29:14;35.80;47.10
25170;DHT22;13129;48.012;10.352;2023-07-20T09:31:40;34.70;47.50
25170;DHT22;13129;48.012;10.352;2023-07-20T09:34:06;33.60;48.50
25170;DHT22;13129;48.012;10.352;2023-07-20T09:36:36;33.20;50.60
25170;DHT22;13129;48.012;10.352;2023-07-20T09:39:03;33.90;50.00
25170;DHT22;13129;48.012;10.352;2023-07-20T09:41:29;34.70;48.10
25170;DHT22;13129;48.012;10.352;2023-07-20T09:43:55;33.50;49.10
25170;DHT22;13129;48.012;10.352;2023-07-20T09:46:20;33.10;49.60
25170;DHT22;13129;48.012;10.352;2023-07-20T09:48:53;32.20;50.40
25170;DHT22;13129;48.012;10.352;2023-07-20T09:51:23;30.70;52.20
25170;DHT22;13129;48.012;10.352;2023-07-20T09:53:52;29.30;54.00
25170;DHT22;13129;48.012;10.352;2023-07-20T09:56:21;28.10;56.10
25170;DHT22;13129;48.012;10.352;2023-07-20T09:58:47;27.10;57.70
25170;DHT22;13129;48.012;10.352;2023-07-20T10:01:17;26.40;58.90
25170;DHT22;13129;48.012;10.352;2023-07-20T10:03:46;25.80;60.50
25170;DHT22;13129;48.012;10.352;2023-07-20T10:06:15;25.70;61.20
25170;DHT22;13129;48.012;10.352;2023-07-20T10:08:47;25.40;62.00
25170;DHT22;13129;48.012;10.352;2023-07-20T10:11:16;25.30;63.40
25170;DHT22;13129;48.012;10.352;2023-07-20T10:13:43;25.10;63.50
25170;DHT22;13129;48.012;10.352;2023-07-20T10:16:12;24.90;64.10
25170;DHT22;13129;48.012;10.352;2023-07-20T10:21:26;24.50;65.30
25170;DHT22;13129;48.012;10.352;2023-07-20T10:23:53;24.60;66.00
25170;DHT22;13129;48.012;10.352;2023-07-20T10:26:19;24.80;66.50
25170;DHT22;13129;48.012;10.352;2023-07-20T10:28:45;25.80;66.60
25170;DHT22;13129;48.012;10.352;2023-07-20T10:31:12;26.70;64.60
25170;DHT22;13129;48.012;10.352;2023-07-20T10:33:38;27.10;62.90
25170;DHT22;13129;48.012;10.352;2023-07-20T10:36:05;27.00;62.50
25170;DHT22;13129;48.012;10.352;2023-07-20T10:41:18;26.30;62.90
25170;DHT22;13129;48.012;10.352;2023-07-20T10:43:45;26.00;64.30
25170;DHT22;13129;48.012;10.352;2023-07-20T10:46:12;25.80;64.20
25170;DHT22;13129;48.012;10.352;2023-07-20T10:49:01;25.70;64.70
25170;DHT22;13129;48.012;10.352;2023-07-20T10:51:28;25.70;64.40
25170;DHT22;13129;48.012;10.352;2023-07-20T10:53:58;26.00;65.50
25170;DHT22;13129;48.012;10.352;2023-07-20T10:56:27;26.40;64.90
25170;DHT22;13129;48.012;10.352;2023-07-20T10:58:59;26.40;64.30
25170;DHT22;13129;48.012;10.352;2023-07-20T11:01:29;26.50;65.30
25170;DHT22;13129;48.012;10.352;2023-07-20T11:03:58;26.70;65.30
25170;DHT22;13129;48.012;10.352;2023-07-20T11:09:04;27.10;65.10
25170;DHT22;13129;48.012;10.352;2023-07-20T11:11:31;26.80;63.30
25170;DHT22;13129;48.012;10.352;2023-07-20T11:14:02;27.00;64.00
25170;DHT22;13129;48.012;10.352;2023-07-20T11:16:45;26.50;63.60
25170;DHT22;13129;48.012;10.352;2023-07-20T11:19:18;26.00;64.10
25170;DHT22;13129;48.012;10.352;2023-07-20T11:21:46;26.60;65.70
25170;DHT22;13129;48.012;10.352;2023-07-20T11:24:12;26.70;65.60
25170;DHT22;13129;48.012;10.352;2023-07-20T11:26:56;26.60;65.50
25170;DHT22;13129;48.012;10.352;2023-07-20T11:29:23;26.00;64.00
25170;DHT22;13129;48.012;10.352;2023-07-20T11:31:50;25.80;65.20
25170;DHT22;13129;48.012;10.352;2023-07-20T11:34:18;26.00;67.60
25170;DHT22;13129;48.012;10.352;2023-07-20T11:36:46;25.60;65.90
25170;DHT22;13129;48.012;10.352;2023-07-20T11:39:13;25.70;67.30
25170;DHT22;13129;48.012;10.352;2023-07-20T11:41:44;26.40;68.20
25170;DHT22;13129;48.012;10.352;2023-07-20T11:44:11;26.80;66.70
25170;DHT22;13129;48.012;10.352;2023-07-20T11:46:39;27.20;66.00
25170;DHT22;13129;48.012;10.352;2023-07-20T11:49:05;27.50;65.80
25170;DHT22;13129;48.012;10.352;2023-07-20T11:51:31;27.80;65.00
25170;DHT22;13129;48.012;10.352;2023-07-20T11:53:58;28.00;64.00
25170;DHT22;13129;48.012;10.352;2023-07-20T11:56:25;28.00;64.90
25170;DHT22;13129;48.012;10.352;2023-07-20T11:58:54;27.80;64.50
25170;DHT22;13129;48.012;10.352;2023-07-20T12:01:20;27.60;64.70
25170;DHT22;13129;48.012;10.352;2023-07-20T12:03:47;27.40;65.50
25170;DHT22;13129;48.012;10.352;2023-07-20T12:06:13;27.40;65.10
25170;DHT22;13129;48.012;10.352;2023-07-20T12:08:39;27.30;65.00
25170;DHT22;13129;48.012;10.352;2023-07-20T12:11:06;27.50;65.20
25170;DHT22;13129;48.012;10.352;2023-07-20T12:13:37;27.00;65.00
25170;DHT22;13129;48.012;10.352;2023-07-20T12:16:18;26.90;66.40
25170;DHT22;13129;48.012;10.352;2023-07-20T12:18:43;26.80;67.40
25170;DHT22;13129;48.012;10.352;2023-07-20T12:21:10;26.90;66.50
25170;DHT22;13129;48.012;10.352;2023-07-20T12:23:40;26.50;64.60
25170;DHT22;13129;48.012;10.352;2023-07-20T12:26:09;25.80;64.60
25170;DHT22;13129;48.012;10.352;2023-07-20T12:28:40;25.60;67.80
25170;DHT22;13129;48.012;10.352;2023-07-20T12:31:09;25.80;70.00
25170;DHT22;13129;48.012;10.352;2023-07-20T12:33:36;25.60;68.50
25170;DHT22;13129;48.012;10.352;2023-07-20T12:36:02;25.50;68.60
25170;DHT22;13129;48.012;10.352;2023-07-20T12:38:28;25.80;69.20
25170;DHT22;13129;48.012;10.352;2023-07-20T12:40:54;25.90;68.60
25170;DHT22;13129;48.012;10.352;2023-07-20T12:43:23;26.20;67.60
25170;DHT22;13129;48.012;10.352;2023-07-20T12:45:49;26.20;68.80
25170;DHT22;13129;48.012;10.352;2023-07-20T12:48:14;26.30;69.20
25170;DHT22;13129;48.012;10.352;2023-07-20T12:50:40;26.70;67.20
25170;DHT22;13129;48.012;10.352;2023-07-20T12:53:06;26.20;65.50
25170;DHT22;13129;48.012;10.352;2023-07-20T12:55:31;25.70;67.00
25170;DHT22;13129;48.012;10.352;2023-07-20T12:57:57;25.60;68.30
25170;DHT22;13129;48.012;10.352;2023-07-20T13:00:23;25.50;67.60
25170;DHT22;13129;48.012;10.352;2023-07-20T13:02:49;25.70;67.20
25170;DHT22;13129;48.012;10.352;2023-07-20T13:05:15;25.80;68.20
25170;DHT22;13129;48.012;10.352;2023-07-20T13:07:41;25.90;68.40
25170;DHT22;13129;48.012;10.352;2023-07-20T13:10:08;25.70;67.50
25170;DHT22;13129;48.012;10.352;2023-07-20T13:12:35;25.70;68.30
25170;DHT22;13129;48.012;10.352;2023-07-20T13:15:07;25.80;69.30
25170;DHT22;13129;48.012;10.352;2023-07-20T13:17:37;25.90;68.70
25170;DHT22;13129;48.012;10.352;2023-07-20T13:20:04;25.90;68.10
25170;DHT22;13129;48.012;10.352;2023-07-20T13:22:31;25.90;67.20
25170;DHT22;13129;48.012;10.352;2023-07-20T13:24:57;25.90;67.40
25170;DHT22;13129;48.012;10.352;2023-07-20T13:27:22;25.80;68.30
25170;DHT22;13129;48.012;10.352;2023-07-20T13:29:48;25.90;68.90
25170;DHT22;13129;48.012;10.352;2023-07-20T13:32:15;25.90;69.30
25170;DHT22;13129;48.012;10.352;2023-07-20T13:34:40;26.00;68.60
25170;DHT22;13129;48.012;10.352;2023-07-20T13:37:06;26.20;67.20
25170;DHT22;13129;48.012;10.352;2023-07-20T13:39:32;26.40;66.40
25170;DHT22;13129;48.012;10.352;2023-07-20T13:41:57;26.50;66.10
25170;DHT22;13129;48.012;10.352;2023-07-20T13:44:23;26.40;64.90
25170;DHT22;13129;48.012;10.352;2023-07-20T13:46:49;26.30;64.90
25170;DHT22;13129;48.012;10.352;2023-07-20T13:49:15;26.20;63.50
25170;DHT22;13129;48.012;10.352;2023-07-20T13:51:44;25.90;62.20
25170;DHT22;13129;48.012;10.352;2023-07-20T13:54:11;25.80;62.90
25170;DHT22;13129;48.012;10.352;2023-07-20T13:56:37;25.60;62.90
25170;DHT22;13129;48.012;10.352;2023-07-20T13:59:02;25.80;64.30
25170;DHT22;13129;48.012;10.352;2023-07-20T14:01:28;25.90;63.70
25170;DHT22;13129;48.012;10.352;2023-07-20T14:03:55;25.90;64.40
25170;DHT22;13129;48.012;10.352;2023-07-20T14:06:21;25.80;65.20
25170;DHT22;13129;48.012;10.352;2023-07-20T14:08:47;25.50;65.80
25170;DHT22;13129;48.012;10.352;2023-07-20T14:11:14;25.30;65.30
25170;DHT22;13129;48.012;10.352;2023-07-20T14:13:39;25.10;65.70
25170;DHT22;13129;48.012;10.352;2023-07-20T14:16:05;25.20;66.10
25170;DHT22;13129;48.012;10.352;2023-07-20T14:18:31;25.30;65.50
25170;DHT22;13129;48.012;10.352;2023-07-20T14:20:57;25.50;65.80
25170;DHT22;13129;48.012;10.352;2023-07-20T14:23:23;25.60;67.80
25170;DHT22;13129;48.012;10.352;2023-07-20T14:25:49;25.50;67.00
25170;DHT22;13129;48.012;10.352;2023-07-20T14:28:14;25.50;67.90
25170;DHT22;13129;48.012;10.352;2023-07-20T14:30:40;25.60;67.10
25170;DHT22;13129;48.012;10.352;2023-07-20T14:33:06;25.40;67.30
25170;DHT22;13129;48.012;10.352;2023-07-20T14:35:32;25.20;67.70
25170;DHT22;13129;48.012;10.352;2023-07-20T14:37:58;25.10;67.50
25170;DHT22;13129;48.012;10.352;2023-07-20T14:40:24;24.90;68.10
25170;DHT22;13129;48.012;10.352;2023-07-20T14:42:49;24.80;66.90
25170;DHT22;13129;48.012;10.352;2023-07-20T14:45:15;24.80;66.20
25170;DHT22;13129;48.012;10.352;2023-07-20T14:47:41;24.90;66.40
25170;DHT22;13129;48.012;10.352;2023-07-20T14:50:08;25.10;65.80
25170;DHT22;13129;48.012;10.352;2023-07-20T14:52:34;25.10;66.60
25170;DHT22;13129;48.012;10.352;2023-07-20T14:54:59;25.10;66.90
25170;DHT22;13129;48.012;10.352;2023-07-20T14:57:25;25.00;67.70
25170;DHT22;13129;48.012;10.352;2023-07-20T14:59:51;24.60;68.20
25170;DHT22;13129;48.012;10.352;2023-07-20T15:02:18;24.30;68.50
25170;DHT22;13129;48.012;10.352;2023-07-20T15:04:47;24.00;69.40
25170;DHT22;13129;48.012;10.352;2023-07-20T15:07:15;23.80;69.50
25170;DHT22;13129;48.012;10.352;2023-07-20T15:09:40;23.70;70.10
25170;DHT22;13129;48.012;10.352;2023-07-20T15:12:07;23.50;70.70
25170;DHT22;13129;48.012;10.352;2023-07-20T15:14:32;23.50;71.20
25170;DHT22;13129;48.012;10.352;2023-07-20T15:16:58;23.50;71.60
25170;DHT22;13129;48.012;10.352;2023-07-20T15:19:24;23.60;71.70
25170;DHT22;13129;48.012;10.352;2023-07-20T15:21:49;23.80;71.10
25170;DHT22;13129;48.012;10.352;2023-07-20T15:24:15;23.90;71.40
25170;DHT22;13129;48.012;10.352;2023-07-20T15:26:40;24.10;70.40
25170;DHT22;13129;48.012;10.352;2023-07-20T15:29:06;24.20;70.50
25170;DHT22;13129;48.012;10.352;2023-07-20T15:31:32;24.50;69.80
25170;DHT22;13129;48.012;10.352;2023-07-20T15:33:58;24.60;69.00
25170;DHT22;13129;48.012;10.352;2023-07-20T15:36:24;24.70;68.60
25170;DHT22;13129;48.012;10.352;2023-07-20T15:38:49;24.70;69.40
25170;DHT22;13129;48.012;10.352;2023-07-20T15:41:15;24.80;68.50
25170;DHT22;13129;48.012;10.352;2023-07-20T15:43:41;24.80;67.40
25170;DHT22;13129;48.012;10.352;2023-07-20T15:49:02;24.70;67.90
25170;DHT22;13129;48.012;10.352;2023-07-20T15:51:27;24.40;68.20
25170;DHT22;13129;48.012;10.352;2023-07-20T15:53:53;24.00;69.10
25170;DHT22;13129;48.012;10.352;2023-07-20T15:56:18;23.80;69.70
25170;DHT22;13129;48.012;10.352;2023-07-20T15:58:44;23.50;71.00
25170;DHT22;13129;48.012;10.352;2023-07-20T16:01:09;23.30;71.30
25170;DHT22;13129;48.012;10.352;2023-07-20T16:03:35;23.30;71.20
25170;DHT22;13129;48.012;10.352;2023-07-20T16:06:01;23.30;71.10
25170;DHT22;13129;48.012;10.352;2023-07-20T16:08:29;23.20;71.40
25170;DHT22;13129;48.012;10.352;2023-07-20T16:10:55;23.20;72.40
25170;DHT22;13129;48.012;10.352;2023-07-20T16:13:23;23.20;74.20
25170;DHT22;13129;48.012;10.352;2023-07-20T16:15:52;23.30;73.20
25170;DHT22;13129;48.012;10.352;2023-07-20T16:18:18;23.30;72.80
25170;DHT22;13129;48.012;10.352;2023-07-20T16:20:44;23.30;72.80
25170;DHT22;13129;48.012;10.352;2023-07-20T16:23:10;23.30;72.80
25170;DHT22;13129;48.012;10.352;2023-07-20T16:25:37;23.20;72.20
25170;DHT22;13129;48.012;10.352;2023-07-20T16:28:03;23.10;72.00
25170;DHT22;13129;48.012;10.352;2023-07-20T16:30:29;23.00;72.30
25170;DHT22;13129;48.012;10.352;2023-07-20T16:32:56;23.00;72.20
25170;DHT22;13129;48.012;10.352;2023-07-20T16:35:22;23.00;72.10
25170;DHT22;13129;48.012;10.352;2023-07-20T16:37:48;23.00;73.10
25170;DHT22;13129;48.012;10.352;2023-07-20T16:40:13;22.90;73.50
25170;DHT22;13129;48.012;10.352;2023-07-20T16:42:44;22.80;74.10
25170;DHT22;13129;48.012;10.352;2023-07-20T16:45:09;22.80;75.60
25170;DHT22;13129;48.012;10.352;2023-07-20T16:47:35;22.60;76.00
25170;DHT22;13129;48.012;10.352;2023-07-20T16:50:00;22.60;76.50
25170;DHT22;13129;48.012;10.352;2023-07-20T16:52:27;22.50;77.30
25170;DHT22;13129;48.012;10.352;2023-07-20T16:54:52;22.50;77.20
25170;DHT22;13129;48.012;10.352;2023-07-20T16:57:18;22.40;76.70
25170;DHT22;13129;48.012;10.352;2023-07-20T16:59:44;22.40;76.80
25170;DHT22;13129;48.012;10.352;2023-07-20T17:02:10;22.30;77.30
25170;DHT22;13129;48.012;10.352;2023-07-20T17:04:35;22.20;78.20
25170;DHT22;13129;48.012;10.352;2023-07-20T17:07:01;22.10;79.20
25170;DHT22;13129;48.012;10.352;2023-07-20T17:09:27;22.00;80.30
25170;DHT22;13129;48.012;10.352;2023-07-20T17:11:53;21.80;81.00
25170;DHT22;13129;48.012;10.352;2023-07-20T17:14:19;21.80;81.60
25170;DHT22;13129;48.012;10.352;2023-07-20T17:16:45;21.60;81.10
25170;DHT22;13129;48.012;10.352;2023-07-20T17:19:11;21.60;81.10
25170;DHT22;13129;48.012;10.352;2023-07-20T17:21:37;21.50;81.10
25170;DHT22;13129;48.012;10.352;2023-07-20T17:27:22;21.30;83.30
25170;DHT22;13129;48.012;10.352;2023-07-20T17:29:47;21.20;83.20
25170;DHT22;13129;48.012;10.352;2023-07-20T17:32:13;21.20;82.70
25170;DHT22;13129;48.012;10.352;2023-07-20T17:34:38;21.10;82.90
25170;DHT22;13129;48.012;10.352;2023-07-20T17:37:05;21.10;83.50
25170;DHT22;13129;48.012;10.352;2023-07-20T17:39:33;21.00;84.00
25170;DHT22;13129;48.012;10.352;2023-07-20T17:41:58;20.90;84.40
25170;DHT22;13129;48.012;10.352;2023-07-20T17:44:24;20.90;84.80
25170;DHT22;13129;48.012;10.352;2023-07-20T17:46:49;20.80;84.70
25170;DHT22;13129;48.012;10.352;2023-07-20T17:49:15;20.80;85.00
25170;DHT22;13129;48.012;10.352;2023-07-20T17:51:41;20.80;85.60
25170;DHT22;13129;48.012;10.352;2023-07-20T17:54:06;20.70;86.20
25170;DHT22;13129;48.012;10.352;2023-07-20T17:56:32;20.70;87.20
25170;DHT22;13129;48.012;10.352;2023-07-20T17:58:58;20.60;88.00
25170;DHT22;13129;48.012;10.352;2023-07-20T18:01:24;20.60;88.40
25170;DHT22;13129;48.012;10.352;2023-07-20T18:03:50;20.50;88.10
25170;DHT22;13129;48.012;10.352;2023-07-20T18:06:16;20.40;88.80
25170;DHT22;13129;48.012;10.352;2023-07-20T18:08:41;20.40;89.30
25170;DHT22;13129;48.012;10.352;2023-07-20T18:11:07;20.40;90.00
25170;DHT22;13129;48.012;10.352;2023-07-20T18:13:34;20.30;90.40
25170;DHT22;13129;48.012;10.352;2023-07-20T18:16:00;20.20;90.70
25170;DHT22;13129;48.012;10.352;2023-07-20T18:18:26;20.30;91.00
25170;DHT22;13129;48.012;10.352;2023-07-20T18:20:52;20.20;90.50
25170;DHT22;13129;48.012;10.352;2023-07-20T18:23:18;20.20;90.50
25170;DHT22;13129;48.012;10.352;2023-07-20T18:25:44;20.10;90.60
25170;DHT22;13129;48.012;10.352;2023-07-20T18:28:10;20.10;91.00
25170;DHT22;13129;48.012;10.352;2023-07-20T18:30:36;20.00;90.90
25170;DHT22;13129;48.012;10.352;2023-07-20T18:33:01;19.90;91.00
25170;DHT22;13129;48.012;10.352;2023-07-20T18:35:28;19.90;90.70
25170;DHT22;13129;48.012;10.352;2023-07-20T18:37:56;19.90;90.30
25170;DHT22;13129;48.012;10.352;2023-07-20T18:40:21;19.80;90.00
25170;DHT22;13129;48.012;10.352;2023-07-20T18:42:47;19.80;89.80
25170;DHT22;13129;48.012;10.352;2023-07-20T18:45:13;19.70;89.40
25170;DHT22;13129;48.012;10.352;2023-07-20T18:47:38;19.60;90.00
25170;DHT22;13129;48.012;10.352;2023-07-20T18:50:05;19.60;90.20
25170;DHT22;13129;48.012;10.352;2023-07-20T18:52:30;19.50;90.50
25170;DHT22;13129;48.012;10.352;2023-07-20T18:54:56;19.40;90.90
25170;DHT22;13129;48.012;10.352;2023-07-20T18:57:22;19.30;91.10
25170;DHT22;13129;48.012;10.352;2023-07-20T18:59:48;19.30;91.50